Terminal Aerodrome Forecast
Issued by NWS

Home | Current Version | Previous Version | Text Only | Print | Product List | Glossary On
Versions: 1 2 3 4 5 6 7 8 9 10 11 12 13 14 15 16 17 18 19 20 21 22 23
987
FTUS41 KPHI 080520
TAFPNE
TAF
KPNE 080520Z 0806/0906 28004KT P6SM BKN150
      TEMPO 0806/0809 3SM BR
     FM081600 28010G20KT P6SM SCT090
     FM090300 30009KT P6SM FEW100=

USA.gov is the U.S. government's official web portal to all federal, state and local government web resources and services.